createdAt,value
2023-02-23T00:02:35.248Z,6.11
2023-02-23T00:05:25.845Z,6.21
2023-02-23T00:08:14.883Z,6.28
2023-02-23T00:11:05.610Z,6.27
2023-02-23T00:13:54.898Z,6.27
2023-02-23T00:16:46.459Z,6.26
2023-02-23T00:19:37.881Z,6.17
2023-02-23T00:22:28.141Z,6.19
2023-02-23T00:25:18.686Z,6.16
2023-02-23T00:28:08.368Z,6.04
2023-02-23T00:30:59.611Z,6.07
2023-02-23T00:33:51.707Z,6.03
2023-02-23T00:36:40.856Z,6.10
2023-02-23T00:39:31.188Z,6.06
2023-02-23T00:42:20.134Z,5.97
2023-02-23T00:45:12.408Z,6.06
2023-02-23T00:48:04.730Z,6.16
2023-02-23T00:51:00.383Z,6.31
2023-02-23T00:53:49.781Z,6.37
2023-02-23T00:56:42.304Z,6.45
2023-02-23T00:59:31.378Z,6.48
2023-02-23T01:02:20.910Z,6.43
2023-02-23T01:05:12.439Z,6.49
2023-02-23T01:08:01.828Z,6.44
2023-02-23T01:10:53.916Z,6.36
2023-02-23T01:13:47.171Z,6.23
2023-02-23T01:16:39.158Z,6.21
2023-02-23T01:19:28.647Z,6.34
2023-02-23T01:22:17.337Z,6.24
2023-02-23T01:25:07.935Z,6.22
2023-02-23T01:27:57.694Z,6.26
2023-02-23T01:30:47.929Z,6.35
2023-02-23T01:33:36.721Z,6.35
2023-02-23T01:36:26.576Z,6.40
2023-02-23T01:39:17.360Z,6.52
2023-02-23T01:42:08.156Z,6.63
2023-02-23T01:45:32.305Z,6.72
2023-02-23T01:48:24.587Z,6.75
2023-02-23T01:51:15.100Z,6.56
2023-02-23T01:54:07.865Z,6.50
2023-02-23T01:56:59.161Z,6.47
2023-02-23T01:59:50.592Z,6.39
2023-02-23T02:02:40.022Z,6.41
2023-02-23T02:05:30.238Z,6.26
2023-02-23T02:08:19.490Z,6.30
2023-02-23T02:11:26.053Z,6.31
2023-02-23T02:14:18.260Z,6.23
2023-02-23T02:17:21.039Z,6.17
2023-02-23T02:20:38.624Z,6.06
2023-02-23T02:24:09.429Z,6.20
2023-02-23T02:27:08.711Z,6.23
2023-02-23T02:30:28.928Z,6.34
2023-02-23T02:33:38.154Z,6.25
2023-02-23T02:37:15.619Z,6.17
2023-02-23T02:40:16.942Z,6.17
2023-02-23T02:43:12.036Z,6.22
2023-02-23T02:46:04.889Z,6.30
2023-02-23T02:49:00.390Z,6.40
2023-02-23T02:51:55.171Z,6.31
2023-02-23T02:54:48.071Z,6.38
2023-02-23T02:57:39.112Z,6.36
2023-02-23T03:00:49.903Z,6.34
2023-02-23T03:03:58.075Z,6.48
2023-02-23T03:07:06.586Z,6.42
2023-02-23T03:10:16.781Z,6.50
2023-02-23T03:13:33.387Z,6.44
2023-02-23T03:16:44.385Z,6.42
2023-02-23T03:19:55.777Z,6.15
2023-02-23T03:23:10.284Z,6.00
2023-02-23T03:26:22.627Z,5.89
2023-02-23T03:29:41.901Z,6.10
2023-02-23T03:32:51.853Z,6.31
2023-02-23T03:36:03.775Z,6.38
2023-02-23T03:39:13.566Z,6.13
2023-02-23T03:42:22.470Z,6.06
2023-02-23T03:45:35.503Z,6.07
2023-02-23T03:48:43.901Z,6.11
2023-02-23T03:51:52.297Z,6.26
2023-02-23T03:54:59.817Z,6.23
2023-02-23T03:58:09.593Z,6.22
2023-02-23T04:01:20.571Z,6.09
2023-02-23T04:04:28.350Z,5.92
2023-02-23T04:07:36.922Z,5.85
2023-02-23T04:10:44.580Z,5.92
2023-02-23T04:13:34.228Z,6.00
2023-02-23T04:16:23.634Z,5.80
2023-02-23T04:19:12.722Z,5.78
2023-02-23T04:22:01.467Z,5.88
2023-02-23T04:24:51.264Z,5.91
2023-02-23T04:27:40.475Z,5.98
2023-02-23T04:30:29.716Z,5.90
2023-02-23T04:33:20.397Z,5.73
2023-02-23T04:36:09.519Z,5.73
2023-02-23T04:38:58.785Z,5.50
2023-02-23T04:41:49.119Z,5.42
2023-02-23T04:44:37.900Z,5.63
2023-02-23T04:47:27.280Z,5.78
2023-02-23T04:55:23.802Z,5.99
2023-02-23T04:58:13.952Z,5.98
2023-02-23T05:01:07.628Z,5.97
2023-02-23T05:03:56.747Z,5.98
2023-02-23T05:06:46.213Z,6.00
2023-02-23T05:09:35.788Z,6.02
2023-02-23T05:12:26.332Z,6.03
2023-02-23T05:15:15.360Z,6.01
2023-02-23T05:18:05.441Z,6.04
2023-02-23T05:20:55.591Z,6.05
2023-02-23T05:23:45.401Z,6.07
2023-02-23T05:26:34.531Z,6.07
2023-02-23T05:29:25.249Z,6.10
2023-02-23T05:32:14.543Z,6.10
2023-02-23T05:35:03.787Z,6.07
2023-02-23T05:37:53.125Z,6.08
2023-02-23T05:40:42.411Z,6.10
2023-02-23T05:43:31.746Z,6.10
2023-02-23T05:46:24.883Z,6.14
2023-02-23T05:49:14.478Z,6.14
2023-02-23T05:52:03.303Z,6.14
2023-02-23T05:54:52.090Z,6.01
2023-02-23T05:57:42.780Z,5.82
2023-02-23T06:00:31.910Z,5.68
2023-02-23T06:03:22.855Z,5.64
2023-02-23T06:06:11.961Z,5.57
2023-02-23T06:09:00.699Z,5.66
2023-02-23T06:11:49.761Z,5.71
2023-02-23T06:14:38.862Z,5.73
2023-02-23T06:17:29.322Z,5.63
2023-02-23T06:20:20.047Z,5.65
2023-02-23T06:23:08.825Z,5.63
2023-02-23T06:25:58.740Z,5.70
2023-02-23T06:28:48.258Z,5.81
2023-02-23T06:31:37.715Z,5.88
2023-02-23T06:34:26.778Z,5.94
2023-02-23T06:37:16.941Z,5.99
2023-02-23T06:40:07.123Z,6.00
2023-02-23T06:42:57.163Z,5.86
2023-02-23T06:45:47.930Z,5.53
2023-02-23T06:48:39.599Z,5.53
2023-02-23T06:51:28.633Z,5.45
2023-02-23T06:54:18.964Z,5.54
2023-02-23T06:57:32.895Z,5.71
2023-02-23T07:00:22.652Z,5.79
2023-02-23T07:03:11.878Z,5.86
2023-02-23T07:06:00.805Z,5.79
2023-02-23T07:08:49.744Z,5.84
2023-02-23T07:11:41.316Z,5.86
2023-02-23T07:14:29.910Z,5.96
2023-02-23T07:17:18.927Z,5.98
2023-02-23T07:20:08.519Z,5.99
2023-02-23T07:22:57.437Z,5.95
2023-02-23T07:25:47.068Z,5.99
2023-02-23T07:28:38.477Z,6.04
2023-02-23T07:31:27.719Z,6.04
2023-02-23T07:34:17.129Z,6.13
2023-02-23T07:37:07.838Z,6.21
2023-02-23T07:39:56.765Z,6.25
2023-02-23T07:42:45.964Z,6.33
2023-02-23T07:45:38.049Z,6.37
2023-02-23T07:48:27.056Z,6.38
2023-02-23T07:51:17.656Z,6.48
2023-02-23T07:54:07.438Z,6.53
2023-02-23T07:56:56.516Z,6.57
2023-02-23T07:59:45.551Z,6.72
2023-02-23T08:02:36.857Z,6.82
2023-02-23T08:05:26.626Z,6.89
2023-02-23T08:08:15.598Z,6.97
2023-02-23T08:11:06.408Z,6.98
2023-02-23T08:13:56.823Z,7.10
2023-02-23T08:16:46.281Z,7.22
2023-02-23T08:19:37.521Z,7.22
2023-02-23T08:22:27.059Z,7.30
2023-02-23T08:25:17.367Z,7.41
2023-02-23T08:28:07.025Z,7.49
2023-02-23T08:30:55.830Z,7.59
2023-02-23T08:33:44.438Z,7.71
2023-02-23T08:36:34.300Z,7.80
2023-02-23T08:39:23.204Z,7.87
2023-02-23T08:42:11.853Z,7.93
2023-02-23T08:45:01.731Z,8.00
2023-02-23T08:47:50.654Z,8.05
2023-02-23T08:50:39.241Z,8.10
2023-02-23T08:53:30.956Z,8.22
2023-02-23T08:56:19.885Z,8.27
2023-02-23T08:59:08.917Z,8.38
2023-02-23T09:01:57.624Z,8.46
2023-02-23T09:04:46.568Z,8.55
2023-02-23T09:07:35.253Z,8.60
2023-02-23T09:10:28.184Z,8.72
2023-02-23T09:13:17.400Z,8.81
2023-02-23T09:16:07.911Z,8.87
2023-02-23T09:18:59.931Z,8.92
2023-02-23T09:21:48.948Z,9.01
2023-02-23T09:24:38.554Z,9.05
2023-02-23T09:27:28.877Z,9.16
2023-02-23T09:30:20.769Z,9.32
2023-02-23T09:33:09.791Z,9.47
2023-02-23T09:35:58.525Z,9.49
2023-02-23T09:38:49.442Z,9.54
2023-02-23T09:41:58.296Z,9.61
2023-02-23T09:44:59.232Z,9.70
2023-02-23T09:47:59.434Z,9.68
2023-02-23T09:50:51.461Z,9.74
2023-02-23T09:53:42.411Z,9.79
2023-02-23T09:56:35.924Z,9.88
2023-02-23T09:59:25.258Z,9.86
2023-02-23T10:02:24.432Z,9.88
2023-02-23T10:05:14.700Z,9.95
2023-02-23T10:08:05.318Z,10.02
2023-02-23T10:11:02.814Z,10.03
2023-02-23T10:14:03.034Z,10.12
2023-02-23T10:17:02.105Z,10.24
2023-02-23T10:19:55.173Z,10.26
2023-02-23T10:22:44.658Z,10.23
2023-02-23T10:25:37.314Z,10.26
2023-02-23T10:28:27.046Z,10.37
2023-02-23T10:31:28.250Z,10.43
2023-02-23T10:34:19.535Z,10.45
2023-02-23T10:37:13.200Z,10.41
2023-02-23T10:40:05.682Z,10.44
2023-02-23T10:42:56.257Z,10.50
2023-02-23T10:45:47.586Z,10.57
2023-02-23T10:48:43.328Z,10.60
2023-02-23T10:51:36.037Z,10.70
2023-02-23T10:54:44.042Z,10.80
2023-02-23T10:57:34.747Z,10.83
2023-02-23T11:00:30.809Z,10.90
2023-02-23T11:03:26.288Z,10.96
2023-02-23T11:06:29.167Z,11.03
2023-02-23T11:09:33.078Z,10.97
2023-02-23T11:12:41.870Z,11.17
2023-02-23T11:15:48.081Z,11.26
2023-02-23T11:18:39.849Z,10.99
2023-02-23T11:21:33.700Z,11.14
2023-02-23T11:24:25.406Z,11.06
2023-02-23T11:27:23.199Z,11.28
2023-02-23T11:30:14.613Z,11.34
2023-02-23T11:33:11.058Z,11.48
2023-02-23T11:36:00.967Z,11.58
2023-02-23T11:39:02.169Z,11.46
2023-02-23T11:42:07.846Z,11.48
2023-02-23T11:45:04.962Z,11.41
2023-02-23T11:47:56.750Z,11.21
2023-02-23T11:50:47.476Z,11.46
2023-02-23T11:53:38.085Z,11.43
2023-02-23T11:56:27.600Z,11.61
2023-02-23T11:59:20.603Z,11.68
2023-02-23T12:02:23.216Z,11.46
2023-02-23T12:05:20.409Z,11.51
2023-02-23T12:08:14.062Z,11.28
2023-02-23T12:11:05.815Z,11.30
2023-02-23T12:13:58.124Z,11.37
2023-02-23T12:16:50.385Z,11.33
2023-02-23T12:19:42.788Z,11.28
2023-02-23T12:22:36.450Z,11.29
2023-02-23T12:25:29.361Z,11.31
2023-02-23T12:28:22.103Z,11.34
2023-02-23T12:31:23.887Z,11.33
2023-02-23T12:34:15.948Z,11.34
2023-02-23T12:37:11.196Z,11.18
2023-02-23T12:40:12.832Z,11.34
2023-02-23T12:43:06.073Z,11.29
2023-02-23T12:45:57.702Z,11.38
2023-02-23T12:48:51.754Z,11.29
2023-02-23T12:51:42.225Z,11.22
2023-02-23T12:54:31.713Z,11.41
2023-02-23T12:57:30.935Z,11.58
2023-02-23T13:00:31.781Z,11.56
2023-02-23T13:03:46.300Z,11.57
2023-02-23T13:06:39.177Z,11.70
2023-02-23T13:09:38.712Z,11.68
2023-02-23T13:12:38.142Z,11.73
2023-02-23T13:15:35.517Z,11.85
2023-02-23T13:18:26.703Z,12.00
2023-02-23T13:21:20.992Z,11.97
2023-02-23T13:24:16.483Z,11.99
2023-02-23T13:27:09.384Z,12.15
2023-02-23T13:29:59.468Z,12.13
2023-02-23T13:32:48.205Z,12.17
2023-02-23T13:35:38.484Z,12.31
2023-02-23T13:38:33.306Z,12.44
2023-02-23T13:41:31.459Z,12.55
2023-02-23T13:44:23.382Z,12.72
2023-02-23T13:47:32.336Z,12.73
2023-02-23T13:50:24.629Z,12.78
2023-02-23T13:53:35.131Z,12.78
2023-02-23T13:56:25.480Z,12.96
2023-02-23T13:59:18.885Z,12.92
2023-02-23T14:02:28.827Z,12.78
2023-02-23T14:05:20.098Z,12.88
2023-02-23T14:08:08.792Z,12.89
2023-02-23T14:10:57.827Z,12.95
2023-02-23T14:14:00.100Z,13.06
2023-02-23T14:17:13.320Z,13.01
2023-02-23T14:20:27.996Z,13.04
2023-02-23T14:23:30.903Z,12.97
2023-02-23T14:26:38.732Z,12.94
2023-02-23T14:29:31.974Z,12.85
2023-02-23T14:32:31.921Z,12.88
2023-02-23T14:35:45.040Z,13.01
2023-02-23T14:38:47.551Z,13.03
2023-02-23T14:41:41.312Z,13.13
2023-02-23T14:44:31.692Z,12.85
2023-02-23T14:47:22.445Z,12.99
2023-02-23T14:50:16.169Z,12.85
2023-02-23T14:53:08.727Z,12.79
2023-02-23T14:55:59.870Z,12.83
2023-02-23T14:58:52.132Z,12.76
2023-02-23T15:01:41.322Z,12.91
2023-02-23T15:04:31.687Z,12.80
2023-02-23T15:07:25.334Z,12.70
2023-02-23T15:10:20.064Z,12.68
2023-02-23T15:13:13.101Z,12.46
2023-02-23T15:16:05.563Z,12.58
2023-02-23T15:19:33.326Z,12.50
2023-02-23T15:22:26.859Z,12.25
2023-02-23T15:25:19.853Z,12.12
2023-02-23T15:28:20.128Z,12.10
2023-02-23T15:31:12.787Z,12.13
2023-02-23T15:34:01.700Z,11.99
2023-02-23T15:36:54.085Z,12.01
2023-02-23T15:39:48.981Z,11.95
2023-02-23T15:42:41.118Z,12.04
2023-02-23T15:45:34.096Z,12.00
2023-02-23T15:48:25.344Z,12.24
2023-02-23T15:51:23.951Z,12.30
2023-02-23T15:54:19.845Z,12.35
2023-02-23T15:57:16.806Z,12.38
2023-02-23T16:00:19.731Z,12.43
2023-02-23T16:03:10.522Z,12.45
2023-02-23T16:06:04.747Z,12.35
2023-02-23T16:09:02.469Z,12.39
2023-02-23T16:11:54.316Z,12.35
2023-02-23T16:14:45.711Z,12.34
2023-02-23T16:17:44.100Z,12.31
2023-02-23T16:20:36.947Z,12.23
2023-02-23T16:23:34.171Z,12.18
2023-02-23T16:26:27.738Z,12.17
2023-02-23T16:29:19.715Z,12.21
2023-02-23T16:32:16.841Z,12.22
2023-02-23T16:35:18.715Z,12.24
2023-02-23T16:38:13.695Z,12.22
2023-02-23T16:41:03.861Z,12.19
2023-02-23T16:43:54.895Z,12.18
2023-02-23T16:47:13.516Z,12.10
2023-02-23T16:50:13.962Z,12.07
2023-02-23T16:53:10.730Z,11.90
2023-02-23T16:56:01.923Z,11.84
2023-02-23T16:58:56.538Z,11.86
2023-02-23T17:01:46.755Z,11.83
2023-02-23T17:04:35.723Z,11.74
2023-02-23T17:07:25.135Z,11.64
2023-02-23T17:10:25.167Z,11.58
2023-02-23T17:13:18.379Z,11.56
2023-02-23T17:16:09.580Z,11.62
2023-02-23T17:18:59.700Z,11.65
2023-02-23T17:21:48.900Z,11.61
2023-02-23T17:24:37.853Z,11.62
2023-02-23T17:27:28.389Z,11.60
2023-02-23T17:30:17.898Z,11.55
2023-02-23T17:33:07.359Z,11.53
2023-02-23T17:35:56.318Z,11.51
2023-02-23T17:38:45.850Z,11.46
2023-02-23T17:41:34.685Z,11.40
2023-02-23T17:44:25.370Z,11.37
2023-02-23T17:47:14.461Z,11.33
2023-02-23T17:50:04.471Z,11.28
2023-02-23T17:52:53.287Z,11.24
2023-02-23T17:55:42.710Z,11.17
2023-02-23T17:58:32.203Z,11.11
2023-02-23T18:01:22.787Z,11.05
2023-02-23T18:04:11.994Z,10.95
2023-02-23T18:07:01.786Z,10.86
2023-02-23T18:09:51.308Z,10.79
2023-02-23T18:12:40.502Z,10.74
2023-02-23T18:15:29.602Z,10.69
2023-02-23T18:18:20.391Z,10.63
2023-02-23T18:21:13.285Z,10.57
2023-02-23T18:24:02.441Z,10.49
2023-02-23T18:26:51.558Z,10.46
2023-02-23T18:29:41.306Z,10.39
2023-02-23T18:32:30.613Z,10.33
2023-02-23T18:35:20.940Z,10.27
2023-02-23T18:38:11.929Z,10.22
2023-02-23T18:41:01.442Z,10.18
2023-02-23T18:43:51.188Z,10.13
2023-02-23T18:46:40.418Z,10.07
2023-02-23T18:49:29.340Z,10.05
2023-02-23T18:52:19.773Z,10.01
2023-02-23T18:55:09.578Z,9.93
2023-02-23T18:57:58.615Z,9.74
2023-02-23T19:00:47.919Z,9.70
2023-02-23T19:03:37.392Z,9.72
2023-02-23T19:06:27.141Z,9.74
2023-02-23T19:09:19.700Z,9.66
2023-02-23T19:12:09.245Z,9.59
2023-02-23T19:14:58.976Z,9.60
2023-02-23T19:17:47.738Z,9.58
2023-02-23T19:20:36.675Z,9.55
2023-02-23T19:23:25.358Z,9.54
2023-02-23T19:26:16.298Z,9.40
2023-02-23T19:29:05.068Z,9.11
2023-02-23T19:31:54.452Z,8.70
2023-02-23T19:34:43.385Z,8.60
2023-02-23T19:37:32.350Z,8.67
2023-02-23T19:40:28.615Z,8.72
2023-02-23T19:43:18.883Z,8.78
2023-02-23T19:46:09.109Z,8.81
2023-02-23T19:48:58.110Z,8.86
2023-02-23T19:51:47.825Z,8.84
2023-02-23T19:54:38.110Z,8.81
2023-02-23T19:57:28.371Z,8.81
2023-02-23T20:00:20.020Z,8.82
2023-02-23T20:03:09.048Z,8.80
2023-02-23T20:05:58.353Z,8.70
2023-02-23T20:08:48.523Z,8.73
2023-02-23T20:11:38.222Z,8.34
2023-02-23T20:14:27.313Z,8.03
2023-02-23T20:17:17.799Z,8.15
2023-02-23T20:20:07.625Z,8.03
2023-02-23T20:22:56.599Z,7.93
2023-02-23T20:25:45.866Z,7.96
2023-02-23T20:28:35.001Z,7.82
2023-02-23T20:31:27.047Z,7.87
2023-02-23T20:34:19.184Z,7.77
2023-02-23T20:37:08.321Z,7.74
2023-02-23T20:39:57.592Z,7.77
2023-02-23T20:42:48.869Z,7.82
2023-02-23T20:45:40.173Z,7.80
2023-02-23T20:48:32.258Z,7.85
2023-02-23T20:51:22.690Z,7.75
2023-02-23T20:54:12.814Z,7.71
2023-02-23T20:57:07.663Z,7.65
2023-02-23T20:59:56.337Z,7.70
2023-02-23T21:02:44.983Z,7.75
2023-02-23T21:05:38.248Z,7.75
2023-02-23T21:08:29.837Z,7.76
2023-02-23T21:11:20.527Z,7.72
2023-02-23T21:14:09.513Z,7.67
2023-02-23T21:16:58.305Z,7.66
2023-02-23T21:19:47.236Z,7.35
2023-02-23T21:22:36.201Z,7.14
2023-02-23T21:25:28.260Z,6.81
2023-02-23T21:28:18.119Z,6.61
2023-02-23T21:31:07.212Z,6.67
2023-02-23T21:33:56.228Z,6.62
2023-02-23T21:36:45.141Z,6.03
2023-02-23T21:39:34.755Z,5.94
2023-02-23T21:42:26.776Z,6.21
2023-02-23T21:45:16.291Z,6.47
2023-02-23T21:48:05.339Z,6.62
2023-02-23T21:50:54.730Z,6.72
2023-02-23T21:53:43.839Z,6.82
2023-02-23T21:56:32.905Z,6.81
2023-02-23T21:59:23.437Z,6.83
2023-02-23T22:02:13.046Z,6.91
2023-02-23T22:05:02.270Z,6.97
2023-02-23T22:07:55.866Z,7.02
2023-02-23T22:10:46.572Z,7.03
2023-02-23T22:13:35.755Z,7.06
2023-02-23T22:16:28.142Z,6.70
2023-02-23T22:19:17.902Z,6.69
2023-02-23T22:22:08.512Z,6.70
2023-02-23T22:24:57.493Z,6.56
2023-02-23T22:27:47.985Z,6.29
2023-02-23T22:30:37.502Z,6.29
2023-02-23T22:33:27.979Z,6.22
2023-02-23T22:36:18.858Z,6.10
2023-02-23T22:39:09.724Z,6.04
2023-02-23T22:41:58.859Z,6.19
2023-02-23T22:44:48.079Z,6.28
2023-02-23T22:47:37.133Z,6.21
2023-02-23T22:50:28.287Z,6.34
2023-02-23T22:53:18.597Z,6.47
2023-02-23T22:56:08.890Z,6.32
2023-02-23T22:59:04.856Z,6.15
2023-02-23T23:01:56.518Z,6.28
2023-02-23T23:04:47.619Z,6.25
2023-02-23T23:07:38.125Z,6.09
2023-02-23T23:10:27.444Z,6.02
2023-02-23T23:13:17.230Z,6.01
2023-02-23T23:16:16.895Z,6.19
2023-02-23T23:19:12.309Z,6.28
2023-02-23T23:22:01.778Z,6.33
2023-02-23T23:24:52.234Z,6.29
2023-02-23T23:27:41.835Z,6.41
2023-02-23T23:30:31.309Z,6.42
2023-02-23T23:33:20.836Z,6.38
2023-02-23T23:36:11.933Z,6.41
2023-02-23T23:39:02.086Z,6.48
2023-02-23T23:41:52.636Z,6.55
2023-02-23T23:44:42.306Z,6.59
2023-02-23T23:47:31.603Z,6.65
2023-02-23T23:50:27.074Z,6.68
2023-02-23T23:53:16.592Z,6.68
2023-02-23T23:56:10.949Z,6.72
2023-02-23T23:59:03.771Z,6.71
